createdAt,value
2019-03-03T00:02:43.541Z,100207.02
2019-03-03T00:07:46.966Z,100214.02
2019-03-03T00:12:50.385Z,100208.28
2019-03-03T00:17:53.819Z,100194.92
2019-03-03T00:22:57.251Z,100188.86
2019-03-03T00:28:00.814Z,100184.95
2019-03-03T00:33:04.288Z,100185.75
2019-03-03T00:38:12.273Z,100186.16
2019-03-03T00:43:19.810Z,100170.45
2019-03-03T00:48:27.710Z,100173.09
2019-03-03T00:53:45.150Z,100170.42
2019-03-03T00:58:50.222Z,100170.04
2019-03-03T01:04:01.124Z,100166.10
2019-03-03T01:09:11.955Z,100164.73
2019-03-03T01:14:22.852Z,100163.44
2019-03-03T01:19:28.039Z,100155.66
2019-03-03T01:24:39.023Z,100156.48
2019-03-03T01:29:42.491Z,100138.33
2019-03-03T01:34:45.909Z,100133.57
2019-03-03T01:39:49.389Z,100133.95
2019-03-03T01:44:52.926Z,100128.33
2019-03-03T01:49:56.368Z,100119.08
2019-03-03T01:54:59.805Z,100112.54
2019-03-03T02:00:04.835Z,100106.92
2019-03-03T02:05:08.405Z,100087.05
2019-03-03T02:10:11.962Z,100072.81
2019-03-03T02:15:15.469Z,100062.44
2019-03-03T02:20:18.881Z,100056.82
2019-03-03T02:25:22.338Z,100051.92
2019-03-03T02:30:26.334Z,100049.31
2019-03-03T02:35:29.902Z,100044.15
2019-03-03T02:40:33.410Z,100035.00
2019-03-03T02:45:37.789Z,100029.80
2019-03-03T02:50:41.248Z,100023.70
2019-03-03T02:55:44.668Z,100011.61
2019-03-03T03:00:49.736Z,100011.31
2019-03-03T03:06:03.841Z,99998.16
2019-03-03T03:11:17.709Z,99993.24
2019-03-03T03:16:26.037Z,99993.80
2019-03-03T03:21:47.417Z,99984.03
2019-03-03T03:26:57.969Z,99982.77
2019-03-03T03:32:08.705Z,99977.11
2019-03-03T03:37:30.031Z,99974.52
2019-03-03T03:42:35.111Z,99970.80
2019-03-03T03:47:43.033Z,99967.00
2019-03-03T03:52:56.578Z,99971.83
2019-03-03T03:58:01.617Z,99952.28
2019-03-03T04:03:13.035Z,99964.92
2019-03-03T04:08:30.340Z,99954.48
2019-03-03T04:13:35.384Z,99938.58
2019-03-03T04:18:40.468Z,99945.82
2019-03-03T04:24:01.846Z,99935.08
2019-03-03T04:29:06.910Z,99945.45
2019-03-03T04:34:11.971Z,99942.84
2019-03-03T04:39:33.159Z,99929.43
2019-03-03T04:44:40.729Z,99928.02
2019-03-03T04:50:04.033Z,99932.70
2019-03-03T04:55:18.807Z,99925.37
2019-03-03T05:00:42.234Z,99919.77
2019-03-03T05:05:53.096Z,99909.28
2019-03-03T05:10:58.139Z,99901.03
2019-03-03T05:16:03.204Z,99904.41
2019-03-03T05:21:06.790Z,99885.75
2019-03-03T05:26:10.277Z,99875.74
2019-03-03T05:31:13.712Z,99872.98
2019-03-03T05:36:17.137Z,99865.66
2019-03-03T05:41:20.582Z,99851.88
2019-03-03T05:46:24.075Z,99851.47
2019-03-03T05:51:28.293Z,99837.61
2019-03-03T05:56:31.784Z,99835.13
2019-03-03T06:01:35.214Z,99834.80
2019-03-03T06:06:38.646Z,99837.45
2019-03-03T06:11:42.122Z,99835.63
2019-03-03T06:16:45.547Z,99824.73
2019-03-03T06:21:48.975Z,99816.27
2019-03-03T06:26:52.402Z,99832.24
2019-03-03T06:31:55.813Z,99823.94
2019-03-03T06:36:59.257Z,99828.73
2019-03-03T06:42:02.688Z,99823.45
2019-03-03T06:47:06.197Z,99826.49
2019-03-03T06:52:09.653Z,99826.00
2019-03-03T06:57:13.128Z,99828.57
2019-03-03T07:02:16.581Z,99829.91
2019-03-03T07:07:20.028Z,99830.09
2019-03-03T07:12:23.488Z,99832.56
2019-03-03T07:17:26.924Z,99829.42
2019-03-03T07:22:30.393Z,99828.53
2019-03-03T07:27:33.884Z,99830.80
2019-03-03T07:32:38.965Z,99832.92
2019-03-03T07:37:42.470Z,99833.81
2019-03-03T07:42:45.862Z,99836.77
2019-03-03T07:47:49.288Z,99842.16
2019-03-03T07:52:52.766Z,99834.35
2019-03-03T07:57:56.202Z,99842.23
2019-03-03T08:02:59.711Z,99834.71
2019-03-03T08:08:03.136Z,99845.30
2019-03-03T08:13:09.461Z,99847.84
2019-03-03T08:18:11.731Z,99851.71
2019-03-03T08:23:15.339Z,99849.20
2019-03-03T08:28:18.761Z,99855.13
2019-03-03T08:33:22.212Z,99859.56
2019-03-03T08:38:25.643Z,99855.98
2019-03-03T08:43:30.702Z,99848.66
2019-03-03T08:48:35.777Z,99857.20
2019-03-03T08:53:56.958Z,99854.50
2019-03-03T08:59:18.189Z,99852.80
2019-03-03T09:04:39.339Z,99861.50
2019-03-03T09:09:44.426Z,99847.23
2019-03-03T09:14:58.103Z,99853.82
2019-03-03T09:20:05.698Z,99851.09
2019-03-03T09:25:14.089Z,99861.87
2019-03-03T09:30:31.479Z,99851.09
2019-03-03T09:35:52.363Z,99861.70
2019-03-03T09:41:00.220Z,99860.80
2019-03-03T09:46:05.366Z,99853.03
2019-03-03T09:51:10.490Z,99855.55
2019-03-03T09:56:18.414Z,99851.91
2019-03-03T10:01:39.213Z,99854.92
2019-03-03T10:06:44.297Z,99851.51
2019-03-03T10:11:52.164Z,99850.16
2019-03-03T10:17:00.163Z,99848.50
2019-03-03T10:22:05.330Z,99843.30
2019-03-03T10:27:13.135Z,99842.70
2019-03-03T10:32:23.917Z,99846.30
2019-03-03T10:37:31.709Z,99845.34
2019-03-03T10:42:39.805Z,99842.11
2019-03-03T10:47:44.878Z,99835.42
2019-03-03T10:52:50.093Z,99828.99
2019-03-03T10:57:55.168Z,99832.80
2019-03-03T11:03:01.929Z,99832.81
2019-03-03T11:08:19.084Z,99836.52
2019-03-03T11:13:29.639Z,99825.61
2019-03-03T11:18:43.650Z,99824.80
2019-03-03T11:23:51.197Z,99821.20
2019-03-03T11:28:56.264Z,99816.45
2019-03-03T11:34:01.417Z,99825.41
2019-03-03T11:39:15.371Z,99825.81
2019-03-03T11:44:23.235Z,99825.58
2019-03-03T11:49:37.275Z,99809.69
2019-03-03T11:54:42.372Z,99799.75
2019-03-03T12:00:04.100Z,99808.78
2019-03-03T12:05:15.285Z,99804.22
2019-03-03T12:10:36.740Z,99794.75
2019-03-03T12:15:41.808Z,99789.73
2019-03-03T12:20:47.017Z,99793.34
2019-03-03T12:25:52.134Z,99795.20
2019-03-03T12:30:59.743Z,99777.30
2019-03-03T12:36:05.076Z,99775.25
2019-03-03T12:41:26.066Z,99765.74
2019-03-03T12:46:31.158Z,99755.88
2019-03-03T12:51:36.230Z,99756.02
2019-03-03T12:56:41.284Z,99752.61
2019-03-03T13:01:52.028Z,99739.84
2019-03-03T13:07:15.026Z,99736.33
2019-03-03T13:12:29.345Z,99728.17
2019-03-03T13:17:48.449Z,99727.77
2019-03-03T13:23:05.362Z,99729.64
2019-03-03T13:28:26.544Z,99719.48
2019-03-03T13:33:31.619Z,99714.29
2019-03-03T13:38:39.518Z,99713.42
2019-03-03T13:43:42.978Z,99709.23
2019-03-03T13:48:46.399Z,99704.71
2019-03-03T13:53:49.824Z,99700.33
2019-03-03T13:58:53.318Z,99699.25
2019-03-03T14:03:56.727Z,99684.80
2019-03-03T14:09:00.171Z,99674.15
2019-03-03T14:14:04.749Z,99679.27
2019-03-03T14:19:08.293Z,99669.52
2019-03-03T14:24:11.815Z,99664.17
2019-03-03T14:29:15.316Z,99653.29
2019-03-03T14:34:18.762Z,99647.50
2019-03-03T14:39:22.205Z,99655.00
2019-03-03T14:44:25.642Z,99641.56
2019-03-03T14:49:29.172Z,99641.56
2019-03-03T14:54:32.599Z,99637.99
2019-03-03T14:59:36.029Z,99629.72
2019-03-03T15:04:39.462Z,99622.58
2019-03-03T15:09:42.900Z,99615.56
2019-03-03T15:14:46.314Z,99614.54
2019-03-03T15:19:49.751Z,99606.66
2019-03-03T15:24:53.202Z,99600.20
2019-03-03T15:29:56.667Z,99595.16
2019-03-03T15:35:00.275Z,99582.20
2019-03-03T15:40:05.787Z,99582.64
2019-03-03T15:45:15.073Z,99581.16
2019-03-03T15:50:20.566Z,99572.23
2019-03-03T15:55:25.944Z,99561.35
2019-03-03T16:00:31.970Z,99545.64
2019-03-03T16:05:35.487Z,99549.55
2019-03-03T16:10:38.927Z,99543.27
2019-03-03T16:15:42.449Z,99535.29
2019-03-03T16:20:45.896Z,99522.25
2019-03-03T16:25:49.330Z,99526.09
2019-03-03T16:30:52.743Z,99516.25
2019-03-03T16:35:56.163Z,99509.55
2019-03-03T16:40:59.585Z,99495.53
2019-03-03T16:46:03.093Z,99497.68
2019-03-03T16:51:06.521Z,99482.37
2019-03-03T16:56:10.018Z,99474.22
2019-03-03T17:01:13.431Z,99465.36
2019-03-03T17:06:16.850Z,99467.96
2019-03-03T17:11:20.316Z,99469.01
2019-03-03T17:16:23.750Z,99463.13
2019-03-03T17:21:27.877Z,99451.80
2019-03-03T17:26:31.388Z,99444.30
2019-03-03T17:31:34.965Z,99434.66
2019-03-03T17:36:38.403Z,99428.69
2019-03-03T17:41:42.197Z,99432.97
2019-03-03T17:46:45.633Z,99434.41
2019-03-03T17:51:49.106Z,99441.38
2019-03-03T17:56:52.621Z,99425.73
2019-03-03T18:01:56.142Z,99436.05
2019-03-03T18:06:59.749Z,99421.23
2019-03-03T18:12:03.455Z,99413.02
2019-03-03T18:17:07.058Z,99422.94
2019-03-03T18:22:10.526Z,99409.70
2019-03-03T18:27:13.993Z,99405.02
2019-03-03T18:32:17.534Z,99394.05
2019-03-03T18:37:21.605Z,99380.51
2019-03-03T18:42:25.145Z,99374.50
2019-03-03T18:47:28.654Z,99368.95
2019-03-03T18:52:32.287Z,99361.86
2019-03-03T18:57:35.849Z,99346.73
2019-03-03T19:02:39.467Z,99352.21
2019-03-03T19:07:42.981Z,99343.88
2019-03-03T19:12:46.687Z,99331.30
2019-03-03T19:17:51.016Z,99336.12
2019-03-03T19:22:54.526Z,99322.97
2019-03-03T19:27:58.487Z,99324.66
2019-03-03T19:33:16.599Z,99317.45
2019-03-03T19:38:20.507Z,99307.87
2019-03-03T19:43:24.097Z,99287.05
2019-03-03T19:48:27.540Z,99277.26
2019-03-03T19:53:31.093Z,99266.83
2019-03-03T19:58:34.581Z,99254.34
2019-03-03T20:03:38.002Z,99247.28
2019-03-03T20:08:41.435Z,99244.67
2019-03-03T20:13:44.945Z,99225.91
2019-03-03T20:18:48.489Z,99220.69
2019-03-03T20:23:51.898Z,99219.11
2019-03-03T20:28:55.332Z,99205.91
2019-03-03T20:33:58.790Z,99190.89
2019-03-03T20:39:02.211Z,99186.42
2019-03-03T20:44:05.665Z,99180.33
2019-03-03T20:49:09.090Z,99166.34
2019-03-03T20:54:12.561Z,99159.98
2019-03-03T20:59:15.979Z,99158.97
2019-03-03T21:04:19.423Z,99155.98
2019-03-03T21:09:22.841Z,99154.36
2019-03-03T21:14:26.269Z,99138.25
2019-03-03T21:19:29.687Z,99149.47
2019-03-03T21:24:33.115Z,99145.69
2019-03-03T21:29:36.541Z,99136.70
2019-03-03T21:34:39.986Z,99127.05
2019-03-03T21:39:43.400Z,99123.77
2019-03-03T21:44:46.842Z,99126.52
2019-03-03T21:49:50.286Z,99135.03
2019-03-03T21:54:53.689Z,99120.42
2019-03-03T21:59:57.134Z,99123.91
2019-03-03T22:05:00.557Z,99099.20
2019-03-03T22:10:05.535Z,99077.48
2019-03-03T22:15:11.517Z,99076.03
2019-03-03T22:20:14.976Z,99066.41
2019-03-03T22:25:18.413Z,99082.73
2019-03-03T22:30:21.926Z,99077.97
2019-03-03T22:35:25.439Z,99054.34
2019-03-03T22:40:28.889Z,99047.05
2019-03-03T22:45:32.355Z,99041.70
2019-03-03T22:50:35.790Z,99025.52
2019-03-03T22:55:40.495Z,99017.55
2019-03-03T23:00:51.280Z,98995.34
2019-03-03T23:06:14.458Z,98971.41
2019-03-03T23:11:23.565Z,98951.66
2019-03-03T23:16:36.136Z,98935.89
2019-03-03T23:21:48.777Z,98912.07
2019-03-03T23:26:52.243Z,98881.42
2019-03-03T23:31:55.671Z,98896.81
2019-03-03T23:36:59.953Z,98906.55
2019-03-03T23:42:03.467Z,98859.05
2019-03-03T23:47:07.007Z,98861.73
2019-03-03T23:52:12.422Z,98865.39
2019-03-03T23:57:15.569Z,98869.61
